Time;durP1;ratioP1;P1;durP2;ratioP2;P2;SDS_P1;SDS_P2;PMS_P1;PMS_P2;Temp;Humidity;BMP_temperature;BMP_pressure;BME280_temperature;BME280_humidity;BME280_pressure;Samples;Min_cycle;Max_cycle;Signal;HPM_P1;HPM_P2
2023/06/28 00:02:13;;;;;;;4.03;1.80;;;;;;;;;;5036074;28;20457;-74
2023/06/28 00:04:39;;;;;;;4.47;2.13;;;;;;;;;;5047865;28;20377;-72
2023/06/28 00:07:07;;;;;;;4.78;1.80;;;;;;;;;;5051896;28;20036;-73
2023/06/28 00:09:33;;;;;;;5.47;2.00;;;;;;;;;;5067960;28;20606;-72
2023/06/28 00:11:58;;;;;;;3.60;1.77;;;;;;;;;;5058745;28;20112;-71
2023/06/28 00:14:23;;;;;;;4.32;2.00;;;;;;;;;;5048438;28;20575;-71
2023/06/28 00:16:49;;;;;;;4.50;1.75;;;;;;;;;;5061913;28;20028;-72
2023/06/28 00:19:17;;;;;;;5.40;1.80;;;;;;;;;;5060253;28;20064;-72
2023/06/28 00:21:43;;;;;;;4.18;1.90;;;;;;;;;;5040228;28;20020;-72
2023/06/28 00:24:08;;;;;;;6.70;2.20;;;;;;;;;;5034973;28;20032;-72
2023/06/28 00:26:34;;;;;;;3.08;1.77;;;;;;;;;;5064362;28;20427;-72
2023/06/28 00:28:59;;;;;;;3.35;1.90;;;;;;;;;;5045879;28;20028;-72
2023/06/28 00:31:24;;;;;;;3.58;1.80;;;;;;;;;;5058893;28;20037;-72
2023/06/28 00:33:50;;;;;;;2.80;1.75;;;;;;;;;;5053850;28;20061;-71
2023/06/28 00:36:15;;;;;;;3.10;1.70;;;;;;;;;;5056329;28;20928;-72
2023/06/28 00:38:41;;;;;;;4.15;1.77;;;;;;;;;;5064634;28;20480;-71
2023/06/28 00:41:06;;;;;;;3.38;1.70;;;;;;;;;;5040317;28;20048;-72
2023/06/28 00:43:32;;;;;;;7.25;1.77;;;;;;;;;;5049780;28;20473;-72
2023/06/28 00:45:57;;;;;;;4.07;1.80;;;;;;;;;;5053141;28;20025;-72
2023/06/28 00:48:23;;;;;;;4.38;1.90;;;;;;;;;;5054190;28;20029;-72
2023/06/28 00:50:49;;;;;;;5.45;1.92;;;;;;;;;;5055012;28;20024;-72
2023/06/28 00:53:16;;;;;;;3.75;1.80;;;;;;;;;;5058253;28;20439;-72
2023/06/28 00:55:41;;;;;;;5.35;1.98;;;;;;;;;;5066699;28;20512;-72
2023/06/28 00:58:07;;;;;;;4.18;1.77;;;;;;;;;;5048391;28;20094;-72
2023/06/28 01:00:32;;;;;;;4.22;1.90;;;;;;;;;;5068199;28;20032;-73
2023/06/28 01:02:57;;;;;;;3.80;1.60;;;;;;;;;;5061840;28;20477;-71
2023/06/28 01:05:23;;;;;;;3.90;1.63;;;;;;;;;;5049960;28;20389;-72
2023/06/28 01:07:50;;;;;;;3.33;1.80;;;;;;;;;;5042763;28;20033;-72
2023/06/28 01:10:17;;;;;;;3.22;1.50;;;;;;;;;;5051047;28;20512;-73
2023/06/28 01:12:43;;;;;;;2.58;1.30;;;;;;;;;;5053089;28;20029;-71
2023/06/28 01:15:09;;;;;;;4.65;1.50;;;;;;;;;;5033760;28;20481;-75
2023/06/28 01:17:35;;;;;;;2.72;1.50;;;;;;;;;;5034449;28;20500;-73
2023/06/28 01:20:01;;;;;;;3.67;1.60;;;;;;;;;;5052426;28;20025;-73
2023/06/28 01:22:27;;;;;;;4.38;1.60;;;;;;;;;;5054023;28;20013;-72
2023/06/28 01:24:52;;;;;;;4.25;2.00;;;;;;;;;;5041672;28;20035;-72
2023/06/28 01:27:18;;;;;;;3.65;1.70;;;;;;;;;;5035951;28;20508;-72
2023/06/28 01:29:44;;;;;;;3.47;1.88;;;;;;;;;;5043542;28;20056;-72
2023/06/28 01:32:09;;;;;;;4.63;1.90;;;;;;;;;;5051016;28;20052;-71
2023/06/28 01:34:35;;;;;;;4.38;1.73;;;;;;;;;;5054079;28;20072;-72
2023/06/28 01:37:02;;;;;;;4.18;1.83;;;;;;;;;;5043440;28;20060;-72
2023/06/28 01:39:30;;;;;;;3.47;1.80;;;;;;;;;;5057824;28;20040;-72
2023/06/28 01:41:57;;;;;;;3.75;1.60;;;;;;;;;;5052417;28;20432;-72
2023/06/28 01:44:23;;;;;;;3.60;1.80;;;;;;;;;;5035877;28;20036;-75
2023/06/28 01:46:49;;;;;;;3.35;1.58;;;;;;;;;;5054054;28;20024;-74
2023/06/28 01:49:15;;;;;;;3.85;1.80;;;;;;;;;;5044889;28;20025;-72
2023/06/28 01:51:41;;;;;;;3.53;1.80;;;;;;;;;;5057358;28;20028;-72
2023/06/28 01:54:06;;;;;;;4.22;1.85;;;;;;;;;;5054595;28;20502;-72
2023/06/28 01:56:31;;;;;;;2.92;1.60;;;;;;;;;;5053739;28;20458;-73
2023/06/28 01:58:57;;;;;;;3.22;1.67;;;;;;;;;;5053202;28;20032;-73
2023/06/28 02:01:22;;;;;;;5.10;2.10;;;;;;;;;;5053326;28;20035;-72
2023/06/28 02:03:47;;;;;;;4.63;1.92;;;;;;;;;;5057344;28;20040;-72
2023/06/28 02:06:14;;;;;;;4.72;2.25;;;;;;;;;;5058105;28;20487;-73
2023/06/28 02:08:39;;;;;;;4.15;2.03;;;;;;;;;;5052982;28;20102;-72
2023/06/28 02:11:05;;;;;;;3.90;1.88;;;;;;;;;;5063821;28;20506;-72
2023/06/28 02:13:30;;;;;;;3.55;1.70;;;;;;;;;;5057985;28;20104;-74
2023/06/28 02:15:55;;;;;;;3.30;1.88;;;;;;;;;;5056729;28;20033;-73
2023/06/28 02:18:24;;;;;;;4.97;1.80;;;;;;;;;;5060902;28;20493;-72
2023/06/28 02:20:53;;;;;;;4.10;1.80;;;;;;;;;;5055339;28;20480;-73
2023/06/28 02:23:19;;;;;;;2.03;1.40;;;;;;;;;;5053985;28;20034;-72
2023/06/28 02:25:44;;;;;;;2.53;1.70;;;;;;;;;;5040150;28;20024;-72
2023/06/28 02:28:10;;;;;;;4.32;1.70;;;;;;;;;;5056090;28;20461;-72
2023/06/28 02:30:35;;;;;;;3.33;1.55;;;;;;;;;;5036410;28;20124;-72
2023/06/28 02:33:01;;;;;;;4.78;1.90;;;;;;;;;;5050481;28;20104;-72
2023/06/28 02:35:26;;;;;;;3.60;1.90;;;;;;;;;;5056564;28;20036;-74
2023/06/28 02:37:52;;;;;;;4.50;1.80;;;;;;;;;;5050774;28;20017;-72
2023/06/28 02:40:17;;;;;;;2.97;1.70;;;;;;;;;;5039315;28;20054;-72
2023/06/28 02:42:43;;;;;;;3.60;1.80;;;;;;;;;;5055317;28;20128;-72
2023/06/28 02:45:09;;;;;;;3.60;1.70;;;;;;;;;;5057845;28;20145;-75
2023/06/28 02:47:34;;;;;;;4.95;2.00;;;;;;;;;;5054060;28;20043;-73
2023/06/28 02:50:05;;;;;;;3.45;1.95;;;;;;;;;;5052422;28;20021;-73
2023/06/28 02:52:31;;;;;;;4.03;1.90;;;;;;;;;;5055912;28;20029;-73
2023/06/28 02:54:56;;;;;;;3.95;1.92;;;;;;;;;;5034019;28;20041;-73
2023/06/28 02:57:22;;;;;;;5.78;2.10;;;;;;;;;;5052859;28;20036;-73
2023/06/28 02:59:47;;;;;;;3.85;1.98;;;;;;;;;;5052277;28;20466;-73
2023/06/28 03:02:15;;;;;;;3.95;2.22;;;;;;;;;;5040067;28;20451;-73
2023/06/28 03:04:40;;;;;;;4.38;1.95;;;;;;;;;;5061960;28;20029;-74
2023/06/28 03:07:11;;;;;;;4.25;1.90;;;;;;;;;;5055435;28;20024;-73
2023/06/28 03:09:36;;;;;;;3.58;2.13;;;;;;;;;;5060110;28;20074;-74
2023/06/28 03:12:02;;;;;;;3.35;1.80;;;;;;;;;;5037155;28;20432;-73
2023/06/28 03:14:27;;;;;;;3.50;1.80;;;;;;;;;;5055555;28;20036;-74
2023/06/28 03:16:53;;;;;;;4.60;2.20;;;;;;;;;;5056264;28;20079;-73
2023/06/28 03:19:18;;;;;;;3.45;2.05;;;;;;;;;;5056159;28;20078;-73
2023/06/28 03:21:43;;;;;;;4.07;2.20;;;;;;;;;;5039567;28;20023;-74
2023/06/28 03:24:09;;;;;;;3.80;1.98;;;;;;;;;;5058617;28;20052;-73
2023/06/28 03:26:34;;;;;;;4.60;1.98;;;;;;;;;;5040726;28;20508;-73
2023/06/28 03:29:00;;;;;;;4.10;2.10;;;;;;;;;;5042613;28;20058;-73
2023/06/28 03:31:25;;;;;;;5.72;1.98;;;;;;;;;;5060233;28;20027;-73
2023/06/28 03:33:51;;;;;;;3.28;2.00;;;;;;;;;;5056296;28;20028;-73
2023/06/28 03:36:16;;;;;;;5.18;2.13;;;;;;;;;;5060943;28;20524;-73
2023/06/28 03:38:41;;;;;;;3.83;1.65;;;;;;;;;;5051103;28;20029;-73
2023/06/28 03:41:07;;;;;;;4.00;2.10;;;;;;;;;;5056715;28;20020;-74
2023/06/28 03:43:32;;;;;;;3.05;1.90;;;;;;;;;;5043610;28;20047;-73
2023/06/28 03:45:57;;;;;;;4.25;1.80;;;;;;;;;;5040410;28;20028;-73
2023/06/28 03:48:23;;;;;;;7.05;2.40;;;;;;;;;;5051116;28;20032;-73
2023/06/28 03:50:48;;;;;;;5.28;2.05;;;;;;;;;;5064998;28;20032;-73
2023/06/28 03:53:14;;;;;;;5.10;2.22;;;;;;;;;;5056054;28;20029;-73
2023/06/28 03:55:39;;;;;;;3.65;1.80;;;;;;;;;;5046974;28;20405;-73
2023/06/28 03:58:04;;;;;;;5.15;1.77;;;;;;;;;;5057964;28;20021;-73
2023/06/28 04:00:30;;;;;;;5.13;2.22;;;;;;;;;;5056854;28;20020;-73
2023/06/28 04:02:55;;;;;;;3.97;1.90;;;;;;;;;;5044892;28;20032;-73
2023/06/28 04:05:20;;;;;;;4.35;1.98;;;;;;;;;;5052237;28;20029;-73
2023/06/28 04:07:54;;;;;;;3.58;1.90;;;;;;;;;;5041804;28;20111;-73
2023/06/28 04:10:20;;;;;;;4.25;2.00;;;;;;;;;;5054679;28;20083;-73
2023/06/28 04:12:46;;;;;;;6.15;2.05;;;;;;;;;;5059135;28;20036;-73
2023/06/28 04:15:11;;;;;;;4.55;1.95;;;;;;;;;;5057506;28;20404;-73
2023/06/28 04:17:37;;;;;;;4.07;1.90;;;;;;;;;;5061955;28;20078;-73
2023/06/28 04:20:05;;;;;;;3.83;2.13;;;;;;;;;;5055091;28;20488;-73
2023/06/28 04:22:31;;;;;;;4.60;1.75;;;;;;;;;;5052363;28;20071;-73
2023/06/28 04:24:56;;;;;;;4.93;1.90;;;;;;;;;;5058210;28;20477;-73
2023/06/28 04:27:22;;;;;;;4.80;2.10;;;;;;;;;;5041942;28;20021;-75
2023/06/28 04:29:47;;;;;;;4.75;2.03;;;;;;;;;;5038206;28;20029;-73
2023/06/28 04:32:39;;;;;;;4.28;2.08;;;;;;;;;;5036263;28;20058;-73
2023/06/28 04:35:05;;;;;;;6.38;2.05;;;;;;;;;;5050514;28;20443;-73
2023/06/28 04:37:31;;;;;;;5.65;2.60;;;;;;;;;;5055543;28;20013;-73
2023/06/28 04:40:01;;;;;;;3.97;1.80;;;;;;;;;;5056214;28;20516;-73
2023/06/28 04:42:26;;;;;;;3.88;2.05;;;;;;;;;;5043441;28;20013;-73
2023/06/28 04:44:54;;;;;;;5.22;2.17;;;;;;;;;;5055847;28;20107;-73
2023/06/28 04:47:19;;;;;;;4.25;2.10;;;;;;;;;;5049142;28;20067;-74
2023/06/28 04:49:47;;;;;;;6.32;2.05;;;;;;;;;;5041334;28;20413;-73
2023/06/28 04:52:14;;;;;;;3.45;1.85;;;;;;;;;;5058339;28;20044;-73
2023/06/28 04:54:41;;;;;;;6.05;2.22;;;;;;;;;;5054337;28;20036;-73
2023/06/28 04:57:06;;;;;;;5.53;2.22;;;;;;;;;;5054231;28;20031;-73
2023/06/28 04:59:32;;;;;;;4.10;2.10;;;;;;;;;;5060386;28;20021;-74
2023/06/28 05:01:58;;;;;;;4.82;2.05;;;;;;;;;;5054796;28;20025;-73
2023/06/28 05:04:24;;;;;;;4.55;2.28;;;;;;;;;;5036461;28;20029;-73
2023/06/28 05:06:51;;;;;;;5.93;2.42;;;;;;;;;;5052976;28;20039;-72
2023/06/28 05:09:18;;;;;;;4.10;2.00;;;;;;;;;;5054295;28;20389;-73
2023/06/28 05:11:43;;;;;;;5.35;2.38;;;;;;;;;;5054852;28;20052;-75
2023/06/28 05:14:09;;;;;;;6.63;2.30;;;;;;;;;;5047506;28;20428;-75
2023/06/28 05:16:34;;;;;;;4.03;2.20;;;;;;;;;;5050375;28;20025;-73
2023/06/28 05:18:59;;;;;;;4.00;2.38;;;;;;;;;;5053655;28;20381;-73
2023/06/28 05:21:25;;;;;;;5.05;2.40;;;;;;;;;;5051748;28;20043;-73
2023/06/28 05:23:50;;;;;;;4.97;1.98;;;;;;;;;;5051387;28;20029;-73
2023/06/28 05:26:15;;;;;;;6.25;2.25;;;;;;;;;;5054543;28;20024;-73
2023/06/28 05:28:41;;;;;;;5.20;2.40;;;;;;;;;;5047078;28;20481;-73
2023/06/28 05:31:06;;;;;;;5.97;2.65;;;;;;;;;;5050849;28;20056;-73
2023/06/28 05:33:32;;;;;;;6.60;2.80;;;;;;;;;;5048823;28;20029;-75
2023/06/28 05:35:57;;;;;;;6.18;2.80;;;;;;;;;;5050809;28;20032;-73
2023/06/28 05:38:22;;;;;;;4.68;2.35;;;;;;;;;;5033669;28;20043;-74
2023/06/28 05:40:53;;;;;;;5.55;3.08;;;;;;;;;;5049245;28;20073;-73
2023/06/28 05:43:21;;;;;;;4.82;2.30;;;;;;;;;;5026773;28;20086;-73
2023/06/28 05:45:46;;;;;;;5.75;2.58;;;;;;;;;;5047071;28;20365;-74
2023/06/28 05:48:12;;;;;;;6.20;2.40;;;;;;;;;;5058283;28;20048;-73
2023/06/28 05:50:37;;;;;;;4.75;2.35;;;;;;;;;;5029334;28;20036;-73
2023/06/28 05:53:02;;;;;;;8.55;3.13;;;;;;;;;;5046400;28;20086;-73
2023/06/28 05:55:28;;;;;;;4.10;2.22;;;;;;;;;;5035638;28;20033;-74
2023/06/28 05:57:53;;;;;;;5.20;2.80;;;;;;;;;;5028572;28;20028;-77
2023/06/28 06:00:19;;;;;;;6.70;2.58;;;;;;;;;;5054310;28;20081;-74
2023/06/28 06:02:44;;;;;;;4.90;2.45;;;;;;;;;;5044612;28;20469;-73
2023/06/28 06:05:13;;;;;;;6.80;2.78;;;;;;;;;;5023078;28;20028;-73
2023/06/28 06:07:39;;;;;;;4.90;2.33;;;;;;;;;;5046589;28;20056;-77
2023/06/28 06:10:05;;;;;;;4.95;2.70;;;;;;;;;;5045302;28;20070;-73
2023/06/28 06:12:31;;;;;;;6.35;2.75;;;;;;;;;;5046694;28;20025;-73
2023/06/28 06:14:57;;;;;;;4.70;2.55;;;;;;;;;;5052380;28;20030;-73
2023/06/28 06:17:22;;;;;;;5.50;2.80;;;;;;;;;;5047950;28;20377;-73
2023/06/28 06:19:47;;;;;;;6.70;2.40;;;;;;;;;;5047097;28;20021;-75
2023/06/28 06:22:13;;;;;;;5.75;3.00;;;;;;;;;;5051153;28;20021;-73
2023/06/28 06:24:38;;;;;;;8.50;2.95;;;;;;;;;;5046564;28;20538;-73
2023/06/28 06:27:04;;;;;;;6.88;3.33;;;;;;;;;;5029203;28;20521;-73
2023/06/28 06:29:30;;;;;;;6.65;3.28;;;;;;;;;;5051739;28;20036;-73
2023/06/28 06:31:55;;;;;;;4.88;3.28;;;;;;;;;;5053224;28;20091;-73
2023/06/28 06:34:21;;;;;;;7.45;2.80;;;;;;;;;;5046282;28;20031;-73
2023/06/28 06:36:46;;;;;;;6.85;3.03;;;;;;;;;;5050174;28;20103;-73
2023/06/28 06:39:11;;;;;;;7.90;3.95;;;;;;;;;;5050871;28;20548;-74
2023/06/28 06:41:37;;;;;;;5.78;3.08;;;;;;;;;;5053606;28;20140;-73
2023/06/28 06:44:02;;;;;;;6.05;3.13;;;;;;;;;;5043522;28;20024;-73
2023/06/28 06:46:28;;;;;;;6.88;3.65;;;;;;;;;;5030999;28;20067;-73
2023/06/28 06:48:55;;;;;;;6.38;3.53;;;;;;;;;;5048501;28;20065;-73
2023/06/28 06:51:20;;;;;;;6.85;3.13;;;;;;;;;;5033078;28;20112;-73
2023/06/28 06:53:45;;;;;;;6.93;3.28;;;;;;;;;;5035209;28;20115;-73
2023/06/28 06:56:11;;;;;;;8.80;3.30;;;;;;;;;;5029086;28;20071;-73
2023/06/28 06:58:36;;;;;;;6.03;2.92;;;;;;;;;;5034544;28;20079;-73
2023/06/28 07:01:02;;;;;;;6.20;3.13;;;;;;;;;;5061282;28;20037;-74
2023/06/28 07:03:28;;;;;;;8.52;3.78;;;;;;;;;;5054311;28;20104;-73
2023/06/28 07:05:53;;;;;;;6.05;2.90;;;;;;;;;;5048167;28;20099;-73
2023/06/28 07:08:19;;;;;;;6.28;3.20;;;;;;;;;;5048922;28;20036;-73
2023/06/28 07:10:44;;;;;;;6.97;3.42;;;;;;;;;;5047659;28;20109;-74
2023/06/28 07:13:14;;;;;;;5.78;3.40;;;;;;;;;;5050786;28;20021;-74
2023/06/28 07:15:39;;;;;;;7.05;3.42;;;;;;;;;;5030102;28;20509;-73
2023/06/28 07:18:05;;;;;;;6.45;3.33;;;;;;;;;;5055974;28;20091;-73
2023/06/28 07:20:30;;;;;;;7.20;3.15;;;;;;;;;;5054546;28;20078;-74
2023/06/28 07:22:55;;;;;;;7.10;3.63;;;;;;;;;;5043744;28;20040;-75
2023/06/28 07:25:21;;;;;;;6.57;3.80;;;;;;;;;;5047143;28;20497;-74
2023/06/28 07:27:47;;;;;;;8.82;4.03;;;;;;;;;;5033233;28;20358;-73
2023/06/28 07:30:13;;;;;;;6.75;3.60;;;;;;;;;;5034488;28;20064;-74
2023/06/28 07:32:38;;;;;;;8.40;3.85;;;;;;;;;;5052678;28;20060;-74
2023/06/28 07:35:04;;;;;;;9.45;4.95;;;;;;;;;;5050915;28;20044;-75
2023/06/28 07:37:30;;;;;;;7.45;3.60;;;;;;;;;;5044389;28;20077;-73
2023/06/28 07:39:57;;;;;;;7.72;4.35;;;;;;;;;;5049168;28;20029;-73
2023/06/28 07:42:23;;;;;;;6.80;3.55;;;;;;;;;;5029938;28;20073;-73
2023/06/28 07:44:49;;;;;;;7.05;3.55;;;;;;;;;;5043793;28;20041;-73
2023/06/28 07:47:14;;;;;;;7.05;3.67;;;;;;;;;;5023076;28;20127;-73
2023/06/28 07:49:40;;;;;;;5.82;3.83;;;;;;;;;;5035440;28;20140;-73
2023/06/28 07:52:06;;;;;;;6.63;3.78;;;;;;;;;;5051792;28;20036;-76
2023/06/28 07:54:31;;;;;;;8.45;4.40;;;;;;;;;;5050303;28;20389;-75
2023/06/28 07:56:56;;;;;;;6.75;3.60;;;;;;;;;;5044897;28;20025;-75
2023/06/28 07:59:22;;;;;;;8.68;4.43;;;;;;;;;;5046786;28;20932;-75
2023/06/28 08:01:48;;;;;;;8.52;4.57;;;;;;;;;;5051018;28;20114;-73
2023/06/28 08:04:15;;;;;;;8.45;4.10;;;;;;;;;;5036902;28;20043;-73
2023/06/28 08:06:41;;;;;;;9.10;4.50;;;;;;;;;;5034720;28;20485;-73
2023/06/28 08:09:07;;;;;;;7.75;4.40;;;;;;;;;;5038953;28;20036;-73
2023/06/28 08:11:32;;;;;;;7.05;3.90;;;;;;;;;;5038370;28;20134;-73
2023/06/28 08:13:57;;;;;;;9.10;4.35;;;;;;;;;;5055199;28;20047;-73
2023/06/28 08:16:23;;;;;;;9.93;4.85;;;;;;;;;;5039892;28;20036;-73
2023/06/28 08:18:48;;;;;;;7.15;3.60;;;;;;;;;;5046651;28;20029;-74
2023/06/28 08:21:14;;;;;;;8.45;4.03;;;;;;;;;;5052222;28;20079;-73
2023/06/28 08:23:39;;;;;;;8.30;4.28;;;;;;;;;;5046194;28;20075;-74
2023/06/28 08:26:05;;;;;;;8.15;4.32;;;;;;;;;;5034769;28;20031;-74
2023/06/28 08:28:31;;;;;;;5.80;3.40;;;;;;;;;;5052923;28;20031;-73
2023/06/28 08:30:57;;;;;;;8.10;4.00;;;;;;;;;;5031465;28;20025;-74
2023/06/28 08:33:24;;;;;;;7.80;3.67;;;;;;;;;;5052887;28;20032;-73
2023/06/28 08:35:50;;;;;;;6.70;3.72;;;;;;;;;;5044057;28;20025;-74
2023/06/28 08:38:15;;;;;;;6.20;4.65;;;;;;;;;;5037842;28;20571;-73
2023/06/28 08:40:40;;;;;;;7.95;4.43;;;;;;;;;;5035397;28;20467;-73
2023/06/28 08:43:06;;;;;;;8.07;4.15;;;;;;;;;;5058017;28;20032;-74
2023/06/28 08:45:35;;;;;;;6.20;3.75;;;;;;;;;;5033318;28;20044;-73
2023/06/28 08:48:01;;;;;;;9.40;4.50;;;;;;;;;;5051456;28;20079;-73
2023/06/28 08:50:28;;;;;;;7.43;3.53;;;;;;;;;;5055679;28;20028;-73
2023/06/28 08:52:53;;;;;;;8.90;4.13;;;;;;;;;;5050445;28;20456;-73
2023/06/28 08:55:20;;;;;;;6.65;4.35;;;;;;;;;;5053473;28;20123;-74
2023/06/28 08:57:47;;;;;;;7.00;3.95;;;;;;;;;;5051005;28;20040;-73
2023/06/28 09:00:13;;;;;;;7.47;4.43;;;;;;;;;;5048524;28;20598;-73
2023/06/28 09:02:43;;;;;;;9.60;4.03;;;;;;;;;;5050357;28;20021;-74
2023/06/28 09:05:10;;;;;;;10.63;4.85;;;;;;;;;;5053865;28;20062;-73
2023/06/28 09:07:39;;;;;;;8.13;4.60;;;;;;;;;;5033677;28;20025;-73
2023/06/28 09:10:06;;;;;;;9.13;4.25;;;;;;;;;;5053997;28;20031;-73
2023/06/28 09:12:32;;;;;;;9.10;4.88;;;;;;;;;;5055530;28;20108;-74
2023/06/28 09:14:58;;;;;;;7.22;3.95;;;;;;;;;;5049462;28;20482;-73
2023/06/28 09:17:23;;;;;;;7.22;3.95;;;;;;;;;;5047897;28;20021;-73
2023/06/28 09:19:48;;;;;;;8.70;4.47;;;;;;;;;;5033648;28;20056;-73
2023/06/28 09:22:15;;;;;;;9.55;4.35;;;;;;;;;;5055481;28;20036;-74
2023/06/28 09:24:41;;;;;;;6.40;3.83;;;;;;;;;;5033234;28;20136;-73
2023/06/28 09:27:07;;;;;;;9.20;4.50;;;;;;;;;;5046849;28;20103;-73
2023/06/28 09:29:33;;;;;;;8.20;4.50;;;;;;;;;;5032662;28;20447;-73
2023/06/28 09:32:00;;;;;;;7.63;3.90;;;;;;;;;;5056769;28;20362;-74
2023/06/28 09:34:25;;;;;;;8.68;4.10;;;;;;;;;;5050678;28;20463;-73
2023/06/28 09:36:55;;;;;;;6.78;3.63;;;;;;;;;;5035727;28;20058;-73
2023/06/28 09:39:22;;;;;;;8.18;3.65;;;;;;;;;;5048486;28;20021;-73
2023/06/28 09:41:48;;;;;;;8.70;4.20;;;;;;;;;;5054376;28;20083;-73
2023/06/28 09:44:15;;;;;;;7.35;4.05;;;;;;;;;;5032897;28;20448;-73
2023/06/28 09:46:47;;;;;;;6.40;3.60;;;;;;;;;;5052365;28;20086;-74
2023/06/28 09:49:24;;;;;;;7.45;3.75;;;;;;;;;;5059389;28;20031;-73
2023/06/28 09:51:59;;;;;;;7.93;4.32;;;;;;;;;;5058371;28;20020;-76
2023/06/28 09:54:45;;;;;;;6.20;3.85;;;;;;;;;;5053231;28;20033;-74
2023/06/28 09:57:11;;;;;;;7.75;4.07;;;;;;;;;;5029473;28;20029;-76
2023/06/28 09:59:37;;;;;;;12.45;4.53;;;;;;;;;;5030569;28;20048;-73
2023/06/28 10:02:07;;;;;;;8.30;4.18;;;;;;;;;;5054979;28;20028;-73
2023/06/28 10:04:37;;;;;;;8.05;4.47;;;;;;;;;;5048847;28;20029;-74
2023/06/28 10:07:04;;;;;;;9.18;3.92;;;;;;;;;;5044061;28;20024;-73
2023/06/28 10:09:35;;;;;;;10.38;4.60;;;;;;;;;;5035412;28;20021;-74
2023/06/28 10:12:05;;;;;;;8.73;4.22;;;;;;;;;;5041105;28;20060;-73
2023/06/28 10:14:38;;;;;;;8.38;4.25;;;;;;;;;;5029154;28;20029;-73
2023/06/28 10:17:04;;;;;;;8.18;4.30;;;;;;;;;;5044563;28;20043;-76
2023/06/28 10:19:30;;;;;;;8.57;4.10;;;;;;;;;;5056681;28;20031;-73
2023/06/28 10:21:56;;;;;;;9.15;4.00;;;;;;;;;;5057810;28;20054;-73
2023/06/28 10:24:22;;;;;;;7.78;3.80;;;;;;;;;;5031375;28;20120;-73
2023/06/28 10:26:49;;;;;;;9.45;4.38;;;;;;;;;;5051552;28;20029;-75
2023/06/28 10:29:15;;;;;;;8.45;3.95;;;;;;;;;;5044549;28;20028;-81
2023/06/28 10:31:41;;;;;;;11.25;4.32;;;;;;;;;;5039495;28;20504;-80
2023/06/28 10:34:07;;;;;;;9.75;4.55;;;;;;;;;;5043057;28;20032;-81
2023/06/28 10:36:32;;;;;;;8.10;4.28;;;;;;;;;;5034238;28;20020;-81
2023/06/28 10:38:58;;;;;;;9.55;4.10;;;;;;;;;;5031904;28;20090;-81
2023/06/28 10:41:24;;;;;;;9.27;4.60;;;;;;;;;;5052755;28;20455;-82
2023/06/28 10:44:07;;;;;;;12.50;5.20;;;;;;;;;;5059134;28;20107;-81
2023/06/28 10:46:33;;;;;;;14.43;4.77;;;;;;;;;;5045696;28;20354;-81
2023/06/28 10:48:59;;;;;;;8.68;4.10;;;;;;;;;;5055856;28;20328;-81
2023/06/28 10:51:30;;;;;;;12.52;5.68;;;;;;;;;;5047331;28;20083;-81
2023/06/28 10:54:13;;;;;;;10.98;4.90;;;;;;;;;;5032494;28;20017;-81
2023/06/28 10:56:41;;;;;;;9.48;4.80;;;;;;;;;;5035173;28;20485;-80
2023/06/28 10:59:06;;;;;;;7.60;4.80;;;;;;;;;;5053332;28;20029;-82
2023/06/28 11:01:43;;;;;;;10.50;4.95;;;;;;;;;;5049339;28;20023;-80
2023/06/28 11:04:11;;;;;;;11.80;4.88;;;;;;;;;;5049765;28;20493;-79
2023/06/28 11:06:38;;;;;;;8.45;4.72;;;;;;;;;;5048093;28;20112;-81
2023/06/28 11:09:13;;;;;;;9.85;4.72;;;;;;;;;;5032060;28;20126;-82
2023/06/28 11:11:44;;;;;;;11.50;4.70;;;;;;;;;;5030881;28;20029;-79
2023/06/28 11:14:30;;;;;;;12.65;4.50;;;;;;;;;;5049331;28;20021;-81
2023/06/28 11:17:22;;;;;;;9.73;5.10;;;;;;;;;;5035612;28;20155;-81
2023/06/28 11:19:48;;;;;;;7.63;4.22;;;;;;;;;;5044140;28;20098;-81
2023/06/28 11:22:13;;;;;;;8.75;4.53;;;;;;;;;;5050538;28;20107;-78
2023/06/28 11:24:39;;;;;;;7.53;4.40;;;;;;;;;;5051284;28;20025;-81
2023/06/28 11:27:17;;;;;;;9.45;4.47;;;;;;;;;;5029206;28;20028;-80
2023/06/28 11:30:01;;;;;;;10.90;5.13;;;;;;;;;;5030515;28;20029;-82
2023/06/28 11:32:31;;;;;;;10.50;5.68;;;;;;;;;;5053758;28;20025;-80
2023/06/28 11:34:58;;;;;;;7.88;4.68;;;;;;;;;;5052083;28;20500;-82
2023/06/28 11:37:24;;;;;;;11.82;5.20;;;;;;;;;;5042348;28;20056;-82
2023/06/28 11:39:50;;;;;;;10.90;5.20;;;;;;;;;;5054569;28;20079;-82
2023/06/28 11:42:16;;;;;;;10.73;5.13;;;;;;;;;;5057570;28;20074;-82
2023/06/28 11:44:47;;;;;;;8.23;5.05;;;;;;;;;;5035337;28;20551;-82
2023/06/28 11:47:15;;;;;;;8.98;5.38;;;;;;;;;;5038789;28;20029;-82
2023/06/28 11:49:41;;;;;;;11.27;5.30;;;;;;;;;;5062129;28;20040;-83
2023/06/28 11:52:08;;;;;;;6.68;4.35;;;;;;;;;;5039826;28;20033;-82
2023/06/28 11:54:34;;;;;;;10.45;5.13;;;;;;;;;;5049356;28;20032;-82
2023/06/28 11:57:01;;;;;;;9.75;5.40;;;;;;;;;;5034668;28;20178;-81
2023/06/28 11:59:27;;;;;;;9.35;5.05;;;;;;;;;;5054933;28;20036;-80
2023/06/28 12:02:18;;;;;;;10.70;5.20;;;;;;;;;;5056478;28;20392;-82
2023/06/28 12:04:55;;;;;;;15.10;6.10;;;;;;;;;;5021517;28;20118;-82
2023/06/28 12:07:21;;;;;;;8.77;5.05;;;;;;;;;;5031413;28;20031;-84
2023/06/28 12:09:54;;;;;;;11.13;5.13;;;;;;;;;;5047341;28;20099;-81
2023/06/28 12:12:19;;;;;;;10.55;5.07;;;;;;;;;;5037577;28;20561;-79
2023/06/28 12:14:46;;;;;;;10.63;4.97;;;;;;;;;;5026273;28;20033;-81
2023/06/28 12:17:12;;;;;;;10.30;4.85;;;;;;;;;;5038042;28;20599;-83
2023/06/28 12:19:40;;;;;;;10.02;4.80;;;;;;;;;;5053391;28;20116;-83
2023/06/28 12:22:07;;;;;;;9.60;4.93;;;;;;;;;;5045465;28;20381;-78
2023/06/28 12:24:37;;;;;;;11.82;4.57;;;;;;;;;;5029290;28;20158;-83
2023/06/28 12:27:07;;;;;;;9.63;4.90;;;;;;;;;;5034333;28;20035;-84
2023/06/28 12:29:35;;;;;;;15.95;6.75;;;;;;;;;;5032254;28;20028;-84
2023/06/28 12:32:11;;;;;;;10.35;4.90;;;;;;;;;;5037988;28;20025;-77
2023/06/28 12:34:38;;;;;;;9.35;5.40;;;;;;;;;;5026793;28;20146;-75
2023/06/28 12:37:09;;;;;;;10.98;5.03;;;;;;;;;;5046550;28;20052;-76
2023/06/28 12:39:37;;;;;;;11.02;6.10;;;;;;;;;;5051401;28;20017;-76
2023/06/28 12:42:10;;;;;;;10.75;5.72;;;;;;;;;;5045207;28;20470;-78
2023/06/28 12:44:50;;;;;;;13.98;6.43;;;;;;;;;;5061305;28;20469;-75
2023/06/28 12:47:17;;;;;;;8.52;4.65;;;;;;;;;;5053606;28;20112;-75
2023/06/28 12:49:44;;;;;;;9.23;5.32;;;;;;;;;;5035549;28;20025;-75
2023/06/28 12:52:09;;;;;;;10.35;6.90;;;;;;;;;;5058203;28;20050;-75
2023/06/28 12:54:35;;;;;;;14.00;7.20;;;;;;;;;;5053527;28;20572;-75
2023/06/28 12:57:03;;;;;;;10.48;6.38;;;;;;;;;;5039255;28;20040;-75
2023/06/28 12:59:28;;;;;;;12.18;7.93;;;;;;;;;;5034478;28;20260;-75
2023/06/28 13:01:54;;;;;;;13.57;8.40;;;;;;;;;;5060796;28;20487;-74
2023/06/28 13:04:19;;;;;;;15.57;8.50;;;;;;;;;;5055774;28;20020;-77
2023/06/28 13:06:45;;;;;;;13.27;9.13;;;;;;;;;;5032659;28;20031;-75
2023/06/28 13:09:10;;;;;;;14.50;10.02;;;;;;;;;;5031649;28;20036;-74
2023/06/28 13:11:35;;;;;;;19.20;11.40;;;;;;;;;;5055398;28;20765;-75
2023/06/28 13:14:01;;;;;;;16.45;11.13;;;;;;;;;;5033177;28;20035;-75
2023/06/28 13:16:26;;;;;;;15.05;10.20;;;;;;;;;;5040710;28;20043;-75
2023/06/28 13:18:51;;;;;;;15.73;10.80;;;;;;;;;;5053216;28;20025;-75
2023/06/28 13:21:17;;;;;;;14.65;10.70;;;;;;;;;;5058613;28;20499;-75
2023/06/28 13:23:44;;;;;;;15.70;10.30;;;;;;;;;;5037564;28;20017;-74
2023/06/28 13:26:10;;;;;;;16.25;10.13;;;;;;;;;;5042115;28;20031;-76
2023/06/28 13:28:35;;;;;;;14.95;10.20;;;;;;;;;;5048376;28;20024;-77
2023/06/28 13:31:00;;;;;;;16.15;10.60;;;;;;;;;;5038122;28;20061;-75
2023/06/28 13:33:26;;;;;;;15.95;10.15;;;;;;;;;;5040986;28;20029;-75
2023/06/28 13:35:51;;;;;;;15.25;10.13;;;;;;;;;;5043002;28;20025;-75
2023/06/28 13:38:16;;;;;;;16.58;10.75;;;;;;;;;;5040259;28;20029;-77
2023/06/28 13:40:42;;;;;;;18.08;10.40;;;;;;;;;;5046081;28;20039;-75
2023/06/28 13:43:08;;;;;;;17.30;9.82;;;;;;;;;;5040955;28;20013;-75
2023/06/28 13:45:34;;;;;;;14.88;9.88;;;;;;;;;;5045134;28;20028;-76
2023/06/28 13:47:59;;;;;;;14.10;9.52;;;;;;;;;;5044778;28;20031;-74
2023/06/28 13:50:24;;;;;;;15.02;10.07;;;;;;;;;;5044348;28;20029;-75
2023/06/28 13:52:50;;;;;;;14.55;9.70;;;;;;;;;;5029398;28;20025;-75
2023/06/28 13:55:15;;;;;;;17.38;10.98;;;;;;;;;;5029798;28;20145;-75
2023/06/28 13:57:41;;;;;;;18.25;11.32;;;;;;;;;;5044565;28;20033;-74
2023/06/28 14:00:07;;;;;;;15.30;10.55;;;;;;;;;;5023437;28;20039;-75
2023/06/28 14:02:32;;;;;;;15.52;10.60;;;;;;;;;;5045643;28;20513;-76
2023/06/28 14:04:57;;;;;;;16.05;10.10;;;;;;;;;;5043685;28;20205;-77
2023/06/28 14:07:23;;;;;;;13.82;10.20;;;;;;;;;;5048666;28;20029;-75
2023/06/28 14:09:48;;;;;;;15.38;9.73;;;;;;;;;;5019022;28;20029;-76
2023/06/28 14:12:14;;;;;;;15.82;9.65;;;;;;;;;;5028222;28;20504;-74
2023/06/28 14:14:41;;;;;;;13.15;8.95;;;;;;;;;;5045764;28;20097;-76
2023/06/28 14:17:06;;;;;;;13.48;9.18;;;;;;;;;;5045650;28;20670;-75
2023/06/28 14:19:31;;;;;;;14.75;9.30;;;;;;;;;;5046572;28;20326;-75
2023/06/28 14:21:57;;;;;;;12.38;8.95;;;;;;;;;;5045105;28;20025;-75
2023/06/28 14:24:22;;;;;;;14.70;9.65;;;;;;;;;;5041220;28;20155;-75
2023/06/28 14:26:50;;;;;;;13.43;9.35;;;;;;;;;;5039921;28;20336;-77
2023/06/28 14:29:15;;;;;;;14.20;9.35;;;;;;;;;;5042935;28;20036;-75
2023/06/28 14:31:41;;;;;;;16.10;9.68;;;;;;;;;;5041922;28;20074;-75
2023/06/28 14:34:06;;;;;;;13.20;9.35;;;;;;;;;;5041344;28;20102;-75
2023/06/28 14:36:32;;;;;;;12.75;8.52;;;;;;;;;;5041928;28;20060;-74